createdAt,value
2023-05-24T00:00:45.142Z,9.03
2023-05-24T00:03:15.419Z,9.00
2023-05-24T00:05:43.969Z,8.95
2023-05-24T00:08:11.473Z,8.94
2023-05-24T00:10:39.209Z,8.91
2023-05-24T00:13:06.962Z,8.91
2023-05-24T00:15:34.085Z,8.95
2023-05-24T00:18:01.440Z,8.98
2023-05-24T00:20:28.746Z,8.94
2023-05-24T00:22:55.958Z,8.95
2023-05-24T00:25:23.232Z,8.91
2023-05-24T00:27:50.939Z,8.87
2023-05-24T00:30:18.205Z,8.79
2023-05-24T00:32:45.542Z,8.73
2023-05-24T00:35:12.720Z,8.69
2023-05-24T00:37:41.977Z,8.66
2023-05-24T00:40:10.037Z,8.58
2023-05-24T00:42:37.508Z,8.57
2023-05-24T00:45:05.024Z,8.53
2023-05-24T00:47:33.187Z,8.50
2023-05-24T00:50:00.679Z,8.49
2023-05-24T00:52:27.878Z,8.52
2023-05-24T00:54:55.229Z,8.51
2023-05-24T00:57:23.968Z,8.48
2023-05-24T00:59:54.499Z,8.50
2023-05-24T01:02:22.317Z,8.51
2023-05-24T01:04:49.500Z,8.52
2023-05-24T01:07:32.697Z,8.57
2023-05-24T01:10:22.260Z,8.57
2023-05-24T01:13:04.274Z,8.60
2023-05-24T01:15:51.103Z,8.61
2023-05-24T01:18:30.317Z,8.65
2023-05-24T01:21:07.080Z,8.68
2023-05-24T01:24:02.365Z,8.68
2023-05-24T01:26:42.390Z,8.68
2023-05-24T01:29:10.350Z,8.68
2023-05-24T01:31:37.988Z,8.68
2023-05-24T01:34:05.144Z,8.67
2023-05-24T01:36:32.348Z,8.57
2023-05-24T01:38:59.520Z,8.55
2023-05-24T01:41:47.550Z,8.53
2023-05-24T01:44:37.686Z,8.54
2023-05-24T01:47:41.535Z,8.50
2023-05-24T01:50:28.139Z,8.48
2023-05-24T01:52:58.806Z,8.50
2023-05-24T01:55:28.250Z,8.39
2023-05-24T01:58:00.705Z,8.43
2023-05-24T02:00:29.130Z,8.47
2023-05-24T02:02:57.775Z,8.47
2023-05-24T02:05:25.122Z,8.54
2023-05-24T02:07:52.460Z,8.58
2023-05-24T02:10:19.871Z,8.61
2023-05-24T02:12:47.026Z,8.64
2023-05-24T02:15:15.371Z,8.68
2023-05-24T02:17:43.368Z,8.75
2023-05-24T02:20:13.398Z,8.73
2023-05-24T02:22:41.519Z,8.75
2023-05-24T02:25:08.845Z,8.73
2023-05-24T02:27:36.128Z,8.84
2023-05-24T02:30:03.492Z,8.86
2023-05-24T02:32:31.403Z,8.84
2023-05-24T02:35:01.990Z,8.86
2023-05-24T02:37:29.109Z,8.87
2023-05-24T02:39:56.306Z,8.84
2023-05-24T02:42:23.478Z,8.84
2023-05-24T02:44:52.577Z,8.81
2023-05-24T02:47:20.051Z,8.86
2023-05-24T02:49:47.293Z,8.77
2023-05-24T02:52:14.807Z,8.82
2023-05-24T02:54:41.956Z,8.80
2023-05-24T02:57:09.111Z,8.81
2023-05-24T02:59:36.548Z,8.85
2023-05-24T03:02:03.801Z,8.85
2023-05-24T03:04:30.980Z,8.87
2023-05-24T03:06:58.128Z,8.94
2023-05-24T03:09:25.466Z,8.94
2023-05-24T03:11:54.452Z,8.97
2023-05-24T03:14:25.116Z,8.93
2023-05-24T03:16:52.394Z,9.00
2023-05-24T03:19:19.712Z,9.02
2023-05-24T03:21:46.886Z,8.95
2023-05-24T03:24:14.594Z,8.92
2023-05-24T03:26:41.701Z,8.97
2023-05-24T03:29:08.879Z,8.97
2023-05-24T03:31:36.501Z,8.96
2023-05-24T03:34:03.651Z,8.92
2023-05-24T03:36:30.926Z,8.93
2023-05-24T03:38:59.131Z,8.90
2023-05-24T03:41:27.624Z,8.87
2023-05-24T03:43:54.843Z,8.82
2023-05-24T03:46:22.599Z,8.84
2023-05-24T03:48:49.937Z,8.90
2023-05-24T03:51:17.161Z,8.89
2023-05-24T03:53:45.744Z,8.80
2023-05-24T03:56:12.859Z,8.79
2023-05-24T03:58:40.014Z,8.77
2023-05-24T04:01:08.199Z,8.79
2023-05-24T04:03:35.412Z,8.74
2023-05-24T04:06:02.700Z,8.69
2023-05-24T04:08:29.903Z,8.77
2023-05-24T04:10:56.998Z,8.73
2023-05-24T04:13:24.164Z,8.71
2023-05-24T04:15:51.386Z,8.74
2023-05-24T04:18:18.661Z,8.78
2023-05-24T04:20:45.866Z,8.76
2023-05-24T04:23:12.990Z,8.71
2023-05-24T04:25:40.177Z,8.76
2023-05-24T04:28:08.467Z,8.78
2023-05-24T04:30:36.927Z,8.80
2023-05-24T04:33:04.201Z,8.83
2023-05-24T04:35:31.459Z,8.79
2023-05-24T04:37:59.793Z,8.83
2023-05-24T04:40:27.079Z,8.91
2023-05-24T04:42:54.193Z,8.97
2023-05-24T04:45:21.444Z,9.02
2023-05-24T04:47:48.603Z,9.08
2023-05-24T04:50:15.994Z,9.23
2023-05-24T04:52:43.291Z,9.25
2023-05-24T04:55:10.618Z,9.38
2023-05-24T04:57:37.702Z,9.43
2023-05-24T05:00:07.411Z,9.48
2023-05-24T05:02:34.675Z,9.58
2023-05-24T05:05:02.070Z,9.62
2023-05-24T05:07:29.229Z,9.78
2023-05-24T05:09:56.963Z,9.85
2023-05-24T05:12:24.106Z,9.97
2023-05-24T05:14:51.881Z,9.99
2023-05-24T05:17:18.980Z,10.11
2023-05-24T05:19:46.152Z,10.13
2023-05-24T05:22:13.312Z,10.13
2023-05-24T05:24:40.429Z,10.23
2023-05-24T05:27:07.818Z,10.26
2023-05-24T05:29:34.971Z,10.34
2023-05-24T05:32:02.121Z,10.47
2023-05-24T05:34:29.208Z,10.55
2023-05-24T05:36:56.397Z,10.65
2023-05-24T05:39:23.504Z,10.59
2023-05-24T05:41:51.011Z,10.75
2023-05-24T05:44:18.539Z,10.72
2023-05-24T05:46:46.392Z,10.86
2023-05-24T05:49:15.508Z,10.89
2023-05-24T05:51:42.713Z,11.02
2023-05-24T05:54:14.401Z,11.01
2023-05-24T05:56:45.800Z,10.96
2023-05-24T05:59:13.176Z,10.95
2023-05-24T06:01:41.133Z,11.16
2023-05-24T06:04:08.394Z,11.20
2023-05-24T06:06:36.205Z,11.33
2023-05-24T06:09:03.573Z,11.39
2023-05-24T06:11:30.679Z,11.45
2023-05-24T06:13:57.845Z,11.50
2023-05-24T06:16:25.018Z,11.69
2023-05-24T06:19:05.567Z,11.80
2023-05-24T06:21:33.948Z,11.93
2023-05-24T06:24:02.792Z,11.97
2023-05-24T06:26:30.382Z,12.12
2023-05-24T06:28:57.484Z,12.30
2023-05-24T06:31:24.787Z,12.32
2023-05-24T06:34:03.918Z,12.29
2023-05-24T06:36:41.231Z,12.40
2023-05-24T06:39:11.993Z,12.63
2023-05-24T06:41:39.875Z,12.49
2023-05-24T06:44:07.693Z,12.60
2023-05-24T06:46:35.125Z,12.59
2023-05-24T06:49:03.194Z,12.73
2023-05-24T06:51:31.220Z,12.76
2023-05-24T06:53:58.418Z,12.76
2023-05-24T06:56:26.926Z,12.55
2023-05-24T06:58:54.104Z,12.65
2023-05-24T07:01:21.256Z,12.75
2023-05-24T07:03:48.456Z,12.86
2023-05-24T07:06:16.325Z,13.10
2023-05-24T07:08:43.496Z,13.32
2023-05-24T07:11:10.699Z,13.08
2023-05-24T07:13:37.890Z,12.86
2023-05-24T07:16:07.197Z,12.73
2023-05-24T07:18:34.433Z,12.66
2023-05-24T07:21:01.719Z,13.09
2023-05-24T07:23:29.203Z,13.40
2023-05-24T07:25:56.646Z,13.52
2023-05-24T07:28:23.970Z,13.73
2023-05-24T07:30:52.327Z,13.77
2023-05-24T07:33:19.966Z,13.94
2023-05-24T07:35:51.392Z,13.65
2023-05-24T07:38:18.842Z,13.69
2023-05-24T07:40:46.218Z,13.83
2023-05-24T07:43:13.484Z,13.82
2023-05-24T07:45:41.137Z,13.73
2023-05-24T07:48:08.614Z,13.65
2023-05-24T07:50:36.405Z,13.55
2023-05-24T07:53:05.271Z,13.50
2023-05-24T07:55:32.436Z,13.71
2023-05-24T07:57:59.637Z,14.05
2023-05-24T08:00:26.962Z,14.15
2023-05-24T08:02:54.298Z,14.21
2023-05-24T08:05:22.245Z,14.25
2023-05-24T08:07:49.432Z,14.16
2023-05-24T08:10:16.905Z,14.25
2023-05-24T08:12:44.759Z,14.54
2023-05-24T08:15:11.934Z,14.63
2023-05-24T08:17:39.392Z,14.64
2023-05-24T08:20:12.586Z,14.47
2023-05-24T08:22:39.737Z,14.48
2023-05-24T08:25:07.636Z,14.61
2023-05-24T08:27:34.861Z,14.21
2023-05-24T08:30:02.085Z,14.35
2023-05-24T08:32:29.484Z,14.25
2023-05-24T08:35:06.645Z,14.49
2023-05-24T08:37:38.133Z,14.42
2023-05-24T08:40:05.855Z,14.49
2023-05-24T08:42:33.453Z,14.48
2023-05-24T08:45:08.521Z,14.50
2023-05-24T08:47:36.860Z,14.64
2023-05-24T08:50:05.489Z,14.86
2023-05-24T08:52:33.130Z,15.05
2023-05-24T08:55:00.704Z,15.16
2023-05-24T08:57:28.447Z,14.92
2023-05-24T08:59:56.227Z,14.51
2023-05-24T09:02:24.382Z,14.43
2023-05-24T09:04:53.138Z,14.27
2023-05-24T09:07:25.016Z,14.24
2023-05-24T09:10:01.133Z,14.18
2023-05-24T09:12:38.195Z,14.46
2023-05-24T09:15:07.609Z,14.60
2023-05-24T09:17:36.444Z,14.79
2023-05-24T09:20:07.530Z,14.85
2023-05-24T09:22:38.135Z,14.95
2023-05-24T09:25:09.609Z,14.83
2023-05-24T09:27:40.457Z,15.02
2023-05-24T09:30:12.883Z,15.15
2023-05-24T09:32:41.430Z,15.52
2023-05-24T09:35:09.836Z,15.67
2023-05-24T09:37:38.830Z,15.73
2023-05-24T09:40:07.971Z,15.17
2023-05-24T09:42:35.206Z,14.81
2023-05-24T09:45:09.536Z,14.79
2023-05-24T09:47:39.444Z,14.84
2023-05-24T09:50:13.223Z,14.68
2023-05-24T09:52:41.130Z,14.49
2023-05-24T09:55:22.930Z,14.85
2023-05-24T09:57:53.459Z,15.06
2023-05-24T10:00:24.057Z,15.27
2023-05-24T10:03:08.206Z,15.31
2023-05-24T10:05:35.905Z,15.30
2023-05-24T10:08:05.184Z,15.16
2023-05-24T10:10:33.665Z,15.12
2023-05-24T10:13:02.036Z,14.94
2023-05-24T10:15:30.783Z,15.06
2023-05-24T10:17:59.166Z,15.21
2023-05-24T10:20:26.824Z,15.18
2023-05-24T10:22:59.839Z,15.38
2023-05-24T10:25:28.624Z,15.50
2023-05-24T10:27:58.720Z,15.51
2023-05-24T10:30:34.464Z,15.45
2023-05-24T10:33:02.818Z,15.39
2023-05-24T10:35:31.674Z,15.44
2023-05-24T10:37:59.734Z,15.34
2023-05-24T10:40:27.003Z,15.60
2023-05-24T10:42:54.816Z,15.64
2023-05-24T10:45:24.703Z,15.73
2023-05-24T10:47:53.764Z,15.81
2023-05-24T10:50:22.338Z,16.22
2023-05-24T10:52:49.756Z,16.34
2023-05-24T10:55:19.570Z,16.39
2023-05-24T10:57:47.474Z,16.10
2023-05-24T11:03:01.557Z,16.20
2023-05-24T11:05:55.419Z,16.26
2023-05-24T11:08:31.015Z,16.18
2023-05-24T11:11:24.402Z,16.14
2023-05-24T11:13:57.511Z,16.15
2023-05-24T11:16:41.211Z,16.20
2023-05-24T11:19:13.258Z,16.05
2023-05-24T11:21:52.276Z,16.09
2023-05-24T11:24:21.404Z,16.07
2023-05-24T11:26:50.324Z,16.20
2023-05-24T11:29:19.544Z,16.21
2023-05-24T11:31:54.202Z,16.31
2023-05-24T11:34:22.179Z,16.44
2023-05-24T11:36:50.110Z,16.55
2023-05-24T11:39:18.120Z,16.46
2023-05-24T11:41:47.505Z,16.38
2023-05-24T11:44:19.589Z,16.53
2023-05-24T11:46:47.438Z,16.86
2023-05-24T11:49:17.622Z,17.20
2023-05-24T11:51:45.449Z,17.47
2023-05-24T11:54:12.719Z,17.47
2023-05-24T11:56:40.167Z,17.32
2023-05-24T11:59:07.922Z,17.19
2023-05-24T12:01:35.283Z,17.17
2023-05-24T12:04:02.598Z,17.25
2023-05-24T12:06:38.207Z,17.38
2023-05-24T12:09:08.635Z,17.31
2023-05-24T12:11:39.970Z,17.50
2023-05-24T12:14:17.901Z,17.59
2023-05-24T12:16:46.569Z,17.31
2023-05-24T12:19:32.468Z,17.16
2023-05-24T12:22:01.876Z,17.25
2023-05-24T12:24:31.378Z,16.84
2023-05-24T12:27:06.985Z,16.90
2023-05-24T12:29:40.301Z,16.85
2023-05-24T12:32:13.150Z,16.73
2023-05-24T12:34:43.489Z,16.78
2023-05-24T12:37:12.403Z,16.69
2023-05-24T12:39:42.373Z,16.80
2023-05-24T12:42:11.536Z,16.83
2023-05-24T12:44:39.282Z,16.66
2023-05-24T12:47:08.852Z,16.81
2023-05-24T12:49:36.343Z,16.93
2023-05-24T12:52:03.753Z,17.45
2023-05-24T12:54:31.203Z,17.92
2023-05-24T12:57:03.396Z,18.09
2023-05-24T12:59:30.980Z,17.49
2023-05-24T13:01:58.249Z,17.48
2023-05-24T13:04:30.581Z,17.47
2023-05-24T13:06:57.805Z,17.53
2023-05-24T13:09:26.285Z,17.53
2023-05-24T13:11:54.286Z,17.49
2023-05-24T13:14:22.277Z,17.41
2023-05-24T13:16:49.689Z,17.43
2023-05-24T13:19:17.356Z,17.36
2023-05-24T13:21:45.635Z,17.40
2023-05-24T13:24:16.446Z,17.64
2023-05-24T13:26:44.542Z,17.41
2023-05-24T13:31:42.061Z,16.97
2023-05-24T13:34:11.275Z,17.05
2023-05-24T13:36:39.260Z,17.03
2023-05-24T13:41:40.657Z,17.26
2023-05-24T13:44:08.635Z,17.58
2023-05-24T13:46:36.649Z,17.67
2023-05-24T13:49:04.532Z,17.39
2023-05-24T13:51:31.975Z,17.58
2023-05-24T13:53:59.700Z,18.42
2023-05-24T13:56:32.600Z,19.44
2023-05-24T13:59:01.617Z,20.11
2023-05-24T14:01:29.117Z,20.98
2023-05-24T14:03:56.503Z,21.35
2023-05-24T14:06:23.755Z,21.27
2023-05-24T14:08:51.297Z,20.82
2023-05-24T14:11:19.659Z,19.72
2023-05-24T14:16:17.330Z,17.49
2023-05-24T14:18:45.795Z,17.65
2023-05-24T14:21:12.922Z,17.65
2023-05-24T14:23:39.978Z,17.29
2023-05-24T14:26:07.665Z,17.44
2023-05-24T14:28:34.844Z,17.71
2023-05-24T14:31:02.408Z,17.65
2023-05-24T14:33:29.658Z,17.69
2023-05-24T14:35:57.173Z,17.20
2023-05-24T14:38:24.982Z,16.94
2023-05-24T14:40:52.803Z,17.21
2023-05-24T14:43:20.176Z,17.86
2023-05-24T14:45:47.582Z,18.76
2023-05-24T14:48:16.699Z,19.20
2023-05-24T14:50:43.849Z,19.42
2023-05-24T14:53:15.084Z,19.46
2023-05-24T14:55:43.708Z,19.95
2023-05-24T14:58:15.092Z,19.86
2023-05-24T15:00:43.311Z,20.39
2023-05-24T15:03:14.965Z,20.28
2023-05-24T15:05:43.107Z,20.66
2023-05-24T15:08:11.433Z,20.84
2023-05-24T15:10:39.406Z,20.11
2023-05-24T15:13:06.695Z,20.61
2023-05-24T15:15:33.845Z,20.97
2023-05-24T15:18:01.141Z,20.92
2023-05-24T15:20:28.647Z,21.37
2023-05-24T15:22:55.897Z,21.82
2023-05-24T15:25:23.040Z,21.43
2023-05-24T15:27:50.224Z,20.94
2023-05-24T15:30:19.763Z,20.14
2023-05-24T15:32:47.498Z,19.23
2023-05-24T15:35:15.304Z,18.39
2023-05-24T15:37:42.793Z,18.27
2023-05-24T15:40:11.240Z,18.60
2023-05-24T15:42:39.548Z,19.36
2023-05-24T15:45:07.411Z,19.91
2023-05-24T15:47:39.854Z,20.82
2023-05-24T15:50:09.086Z,20.99
2023-05-24T15:52:36.702Z,20.67
2023-05-24T15:55:04.603Z,20.08
2023-05-24T15:57:31.811Z,19.72
2023-05-24T15:59:58.943Z,19.50
2023-05-24T16:02:26.909Z,19.12
2023-05-24T16:04:54.463Z,18.82
2023-05-24T16:07:22.320Z,18.56
2023-05-24T16:09:52.798Z,18.24
2023-05-24T16:12:20.243Z,17.97
2023-05-24T16:14:47.459Z,17.64
2023-05-24T16:17:17.483Z,17.32
2023-05-24T16:19:49.364Z,17.27
2023-05-24T16:22:16.819Z,17.05
2023-05-24T16:24:44.910Z,16.91
2023-05-24T16:27:12.080Z,16.80
2023-05-24T16:29:39.426Z,16.74
2023-05-24T16:32:07.666Z,16.62
2023-05-24T16:34:44.797Z,16.49
2023-05-24T16:37:22.372Z,16.32
2023-05-24T16:39:49.530Z,16.29
2023-05-24T16:42:16.713Z,16.31
2023-05-24T16:44:43.904Z,16.35
2023-05-24T16:47:11.821Z,16.20
2023-05-24T16:49:39.034Z,16.19
2023-05-24T16:52:06.800Z,16.12
2023-05-24T16:54:33.885Z,16.12
2023-05-24T16:57:01.641Z,16.07
2023-05-24T16:59:28.893Z,16.10
2023-05-24T17:01:56.284Z,16.04
2023-05-24T17:04:23.463Z,16.04
2023-05-24T17:06:50.876Z,16.00
2023-05-24T17:09:18.016Z,16.04
2023-05-24T17:11:45.495Z,16.01
2023-05-24T17:14:12.648Z,16.01
2023-05-24T17:16:39.875Z,15.94
2023-05-24T17:19:07.048Z,15.87
2023-05-24T17:21:34.197Z,15.86
2023-05-24T17:24:01.324Z,15.74
2023-05-24T17:26:28.624Z,15.56
2023-05-24T17:28:56.379Z,15.49
2023-05-24T17:31:23.596Z,15.56
2023-05-24T17:33:51.116Z,15.54
2023-05-24T17:36:18.504Z,15.48
2023-05-24T17:38:45.714Z,15.40
2023-05-24T17:41:12.907Z,15.35
2023-05-24T17:43:40.595Z,15.36
2023-05-24T17:46:09.449Z,15.45
2023-05-24T17:48:37.728Z,15.29
2023-05-24T17:51:08.210Z,15.24
2023-05-24T17:53:37.290Z,15.29
2023-05-24T17:56:05.520Z,15.25
2023-05-24T17:58:35.736Z,15.18
2023-05-24T18:01:05.686Z,15.16
2023-05-24T18:03:34.182Z,15.08
2023-05-24T18:06:01.412Z,15.13
2023-05-24T18:08:28.637Z,15.21
2023-05-24T18:10:55.804Z,15.28
2023-05-24T18:13:22.999Z,15.24
2023-05-24T18:15:51.225Z,15.19
2023-05-24T18:18:18.720Z,15.21
2023-05-24T18:20:45.927Z,15.13
2023-05-24T18:23:13.838Z,15.27
2023-05-24T18:25:41.302Z,15.21
2023-05-24T18:28:08.663Z,15.25
2023-05-24T18:30:35.802Z,15.25
2023-05-24T18:33:07.909Z,15.26
2023-05-24T18:35:35.821Z,15.13
2023-05-24T18:38:04.796Z,15.18
2023-05-24T18:40:31.965Z,15.26
2023-05-24T18:42:59.131Z,15.23
2023-05-24T18:45:26.296Z,15.26
2023-05-24T18:47:54.222Z,15.29
2023-05-24T18:50:23.448Z,15.29
2023-05-24T18:52:50.877Z,15.27
2023-05-24T18:55:18.466Z,15.21
2023-05-24T18:57:45.605Z,15.11
2023-05-24T19:00:14.081Z,14.98
2023-05-24T19:02:41.490Z,15.05
2023-05-24T19:05:09.404Z,14.96
2023-05-24T19:07:37.271Z,14.84
2023-05-24T19:10:05.417Z,14.77
2023-05-24T19:12:32.775Z,14.76
2023-05-24T19:15:02.946Z,14.76
2023-05-24T19:17:30.310Z,14.81
2023-05-24T19:19:57.596Z,14.77
2023-05-24T19:22:26.383Z,14.60
2023-05-24T19:24:54.003Z,14.54
2023-05-24T19:27:21.859Z,14.53
2023-05-24T19:29:49.930Z,14.47
2023-05-24T19:32:25.841Z,14.47
2023-05-24T19:35:22.813Z,14.53
2023-05-24T19:37:55.712Z,14.35
2023-05-24T19:40:27.920Z,14.34
2023-05-24T19:42:55.287Z,14.35
2023-05-24T19:45:26.012Z,14.27
2023-05-24T19:47:53.447Z,14.25
2023-05-24T19:50:20.985Z,14.28
2023-05-24T19:52:48.208Z,14.24
2023-05-24T19:55:16.183Z,14.19
2023-05-24T19:57:45.998Z,14.10
2023-05-24T20:00:14.285Z,14.14
2023-05-24T20:02:41.713Z,14.10
2023-05-24T20:05:09.414Z,14.06
2023-05-24T20:07:37.548Z,13.97
2023-05-24T20:10:05.661Z,13.89
2023-05-24T20:12:34.757Z,13.84
2023-05-24T20:15:02.226Z,13.82
2023-05-24T20:17:29.917Z,13.79
2023-05-24T20:19:57.392Z,13.75
2023-05-24T20:22:24.706Z,13.66
2023-05-24T20:24:55.348Z,13.65
2023-05-24T20:27:22.741Z,13.62
2023-05-24T20:29:50.117Z,13.69
2023-05-24T20:32:17.645Z,13.64
2023-05-24T20:34:45.639Z,13.59
2023-05-24T20:37:13.132Z,13.63
2023-05-24T20:39:40.481Z,13.60
2023-05-24T20:42:11.201Z,13.54
2023-05-24T20:44:38.356Z,13.44
2023-05-24T20:47:08.585Z,13.44
2023-05-24T20:49:36.952Z,13.32
2023-05-24T20:52:04.850Z,13.27
2023-05-24T20:54:32.243Z,13.24
2023-05-24T20:56:59.960Z,13.17
2023-05-24T20:59:27.211Z,13.21
2023-05-24T21:01:54.532Z,13.23
2023-05-24T21:04:22.612Z,13.13
2023-05-24T21:06:49.983Z,13.11
2023-05-24T21:09:17.356Z,13.10
2023-05-24T21:11:45.724Z,13.14
2023-05-24T21:14:14.056Z,13.15
2023-05-24T21:16:41.435Z,13.13
2023-05-24T21:19:09.026Z,13.11
2023-05-24T21:21:38.035Z,13.09
2023-05-24T21:24:05.571Z,13.04
2023-05-24T21:26:35.826Z,13.01
2023-05-24T21:29:03.392Z,12.96
2023-05-24T21:31:32.130Z,12.93
2023-05-24T21:33:59.697Z,12.92
2023-05-24T21:36:29.252Z,12.90
2023-05-24T21:38:57.128Z,12.86
2023-05-24T21:41:24.647Z,12.86
2023-05-24T21:43:55.234Z,12.80
2023-05-24T21:46:22.527Z,12.85
2023-05-24T21:48:53.783Z,12.81
2023-05-24T21:51:30.955Z,12.76
2023-05-24T21:54:01.937Z,12.75
2023-05-24T21:56:30.105Z,12.70
2023-05-24T21:58:58.279Z,12.73
2023-05-24T22:01:26.425Z,12.69
2023-05-24T22:03:55.465Z,12.65
2023-05-24T22:06:24.414Z,12.60
2023-05-24T22:09:12.319Z,12.52
2023-05-24T22:11:41.483Z,12.43
2023-05-24T22:14:10.558Z,12.49
2023-05-24T22:16:44.250Z,12.43
2023-05-24T22:19:16.992Z,12.38
2023-05-24T22:21:51.027Z,12.32
2023-05-24T22:24:18.609Z,12.34
2023-05-24T22:26:47.284Z,12.30
2023-05-24T22:29:15.768Z,12.26
2023-05-24T22:31:44.821Z,12.16
2023-05-24T22:34:13.976Z,12.18
2023-05-24T22:36:42.173Z,12.15
2023-05-24T22:39:11.282Z,12.17
2023-05-24T22:41:38.568Z,12.11
2023-05-24T22:44:06.441Z,12.12
2023-05-24T22:46:34.451Z,12.09
2023-05-24T22:49:03.232Z,12.01
2023-05-24T22:51:30.507Z,11.96
2023-05-24T22:53:57.879Z,12.00
2023-05-24T22:56:27.038Z,11.98
2023-05-24T22:58:54.508Z,11.96
2023-05-24T23:01:22.365Z,11.87
2023-05-24T23:03:49.523Z,11.93
2023-05-24T23:06:17.912Z,11.92
2023-05-24T23:08:48.258Z,11.88
2023-05-24T23:11:17.451Z,11.87
2023-05-24T23:13:46.627Z,11.84
2023-05-24T23:16:18.227Z,11.84
2023-05-24T23:18:46.086Z,11.78
2023-05-24T23:21:15.278Z,11.82
2023-05-24T23:23:44.272Z,11.78
2023-05-24T23:26:11.767Z,11.73
2023-05-24T23:28:39.098Z,11.64
2023-05-24T23:31:09.950Z,11.65
2023-05-24T23:33:37.199Z,11.62
2023-05-24T23:36:04.704Z,11.59
2023-05-24T23:38:32.034Z,11.56
2023-05-24T23:40:59.460Z,11.52
2023-05-24T23:43:26.679Z,11.49
2023-05-24T23:45:53.860Z,11.44
2023-05-24T23:48:23.086Z,11.47
2023-05-24T23:50:54.415Z,11.43
2023-05-24T23:53:22.174Z,11.38
2023-05-24T23:55:49.298Z,11.34
2023-05-24T23:58:16.989Z,11.31
